createdAt,value
2023-04-04T00:00:34.866Z,100766.34
2023-04-04T00:03:02.127Z,100772.56
2023-04-04T00:05:29.175Z,100775.34
2023-04-04T00:07:56.632Z,100771.88
2023-04-04T00:10:23.607Z,100769.34
2023-04-04T00:12:50.782Z,100772.19
2023-04-04T00:15:17.965Z,100774.00
2023-04-04T00:17:44.932Z,100766.34
2023-04-04T00:20:12.064Z,100758.66
2023-04-04T00:22:38.985Z,100756.16
2023-04-04T00:25:06.312Z,100757.09
2023-04-04T00:27:33.286Z,100755.53
2023-04-04T00:30:00.460Z,100757.31
2023-04-04T00:32:27.650Z,100754.09
2023-04-04T00:34:54.912Z,100741.06
2023-04-04T00:37:22.036Z,100739.34
2023-04-04T00:39:49.851Z,100736.00
2023-04-04T00:42:17.076Z,100745.81
2023-04-04T00:44:44.151Z,100742.44
2023-04-04T00:47:11.219Z,100732.84
2023-04-04T00:49:38.204Z,100736.56
2023-04-04T00:52:07.492Z,100741.97
2023-04-04T00:54:35.549Z,100735.94
2023-04-04T00:57:06.293Z,100737.84
2023-04-04T00:59:33.826Z,100731.03
2023-04-04T01:02:01.173Z,100734.72
2023-04-04T01:04:31.995Z,100737.47
2023-04-04T01:07:00.810Z,100737.59
2023-04-04T01:09:28.517Z,100734.25
2023-04-04T01:11:57.244Z,100733.50
2023-04-04T01:14:25.760Z,100738.03
2023-04-04T01:16:53.659Z,100736.38
2023-04-04T01:19:44.544Z,100729.66
2023-04-04T01:22:17.760Z,100740.41
2023-04-04T01:24:48.496Z,100734.31
2023-04-04T01:27:16.257Z,100731.75
2023-04-04T01:29:50.995Z,100729.25
2023-04-04T01:33:08.133Z,100731.16
2023-04-04T01:35:57.083Z,100722.66
2023-04-04T01:39:05.429Z,100728.88
2023-04-04T01:41:35.255Z,100731.63
2023-04-04T01:44:03.806Z,100721.22
2023-04-04T01:46:31.450Z,100721.41
2023-04-04T01:49:00.261Z,100716.28
2023-04-04T01:51:31.230Z,100725.97
2023-04-04T01:53:58.467Z,100719.03
2023-04-04T01:56:25.628Z,100722.59
2023-04-04T01:58:53.661Z,100712.28
2023-04-04T02:01:21.248Z,100708.94
2023-04-04T02:03:48.520Z,100716.13
2023-04-04T02:06:15.515Z,100713.56
2023-04-04T02:08:43.203Z,100708.44
2023-04-04T02:11:10.842Z,100708.56
2023-04-04T02:13:41.224Z,100702.47
2023-04-04T02:16:08.543Z,100720.16
2023-04-04T02:18:36.112Z,100719.38
2023-04-04T02:21:03.229Z,100715.09
2023-04-04T02:23:30.170Z,100713.41
2023-04-04T02:25:57.092Z,100708.28
2023-04-04T02:28:24.193Z,100697.88
2023-04-04T02:30:51.250Z,100711.94
2023-04-04T02:33:18.193Z,100707.63
2023-04-04T02:35:45.847Z,100702.50
2023-04-04T02:38:12.805Z,100707.75
2023-04-04T02:40:46.189Z,100711.34
2023-04-04T02:43:13.305Z,100708.81
2023-04-04T02:45:40.828Z,100699.34
2023-04-04T02:48:17.192Z,100707.34
2023-04-04T02:50:47.962Z,100705.69
2023-04-04T02:53:15.877Z,100701.47
2023-04-04T02:55:43.713Z,100706.84
2023-04-04T02:58:10.704Z,100700.88
2023-04-04T03:00:37.841Z,100707.06
2023-04-04T03:03:05.403Z,100714.22
2023-04-04T03:05:36.845Z,100709.06
2023-04-04T03:08:04.794Z,100706.56
2023-04-04T03:10:32.081Z,100701.41
2023-04-04T03:12:59.577Z,100701.53
2023-04-04T03:15:28.904Z,100705.06
2023-04-04T03:17:56.754Z,100701.72
2023-04-04T03:20:27.933Z,100713.19
2023-04-04T03:22:54.972Z,100709.84
2023-04-04T03:25:21.935Z,100702.16
2023-04-04T03:27:48.894Z,100706.56
2023-04-04T03:30:24.994Z,100711.00
2023-04-04T03:32:52.029Z,100709.53
2023-04-04T03:35:19.058Z,100707.84
2023-04-04T03:37:46.013Z,100707.13
2023-04-04T03:40:13.874Z,100714.28
2023-04-04T03:42:41.556Z,100720.50
2023-04-04T03:45:11.648Z,100715.44
2023-04-04T03:47:40.793Z,100716.50
2023-04-04T03:50:08.296Z,100713.94
2023-04-04T03:52:42.164Z,100710.59
2023-04-04T03:55:09.879Z,100715.13
2023-04-04T03:57:36.904Z,100708.28
2023-04-04T04:00:06.424Z,100713.66
2023-04-04T04:02:40.021Z,100707.69
2023-04-04T04:05:09.182Z,100710.41
2023-04-04T04:07:36.269Z,100715.75
2023-04-04T04:10:05.324Z,100709.78
2023-04-04T04:12:32.848Z,100708.22
2023-04-04T04:14:59.818Z,100709.16
2023-04-04T04:17:27.691Z,100712.72
2023-04-04T04:19:54.778Z,100713.66
2023-04-04T04:22:23.248Z,100716.41
2023-04-04T04:24:50.512Z,100714.72
2023-04-04T04:27:17.569Z,100719.25
2023-04-04T04:29:44.616Z,100716.63
2023-04-04T04:32:17.599Z,100708.94
2023-04-04T04:34:48.980Z,100712.50
2023-04-04T04:37:17.977Z,100714.41
2023-04-04T04:39:48.799Z,100716.28
2023-04-04T04:42:36.179Z,100715.66
2023-04-04T04:45:04.337Z,100714.00
2023-04-04T04:47:34.665Z,100720.28
2023-04-04T04:50:05.997Z,100726.47
2023-04-04T04:52:42.518Z,100721.44
2023-04-04T04:55:11.464Z,100727.72
2023-04-04T04:57:43.671Z,100725.22
2023-04-04T05:00:17.883Z,100727.09
2023-04-04T05:02:46.602Z,100730.75
2023-04-04T05:05:16.431Z,100731.81
2023-04-04T05:07:47.249Z,100724.88
2023-04-04T05:10:14.465Z,100727.63
2023-04-04T05:12:45.593Z,100732.09
2023-04-04T05:15:19.309Z,100732.22
2023-04-04T05:17:50.420Z,100729.72
2023-04-04T05:20:17.576Z,100736.00
2023-04-04T05:22:49.055Z,100735.16
2023-04-04T05:25:22.594Z,100732.63
2023-04-04T05:27:49.880Z,100734.53
2023-04-04T05:30:20.096Z,100735.47
2023-04-04T05:32:57.474Z,100744.28
2023-04-04T05:35:28.231Z,100739.03
2023-04-04T05:37:57.583Z,100739.13
2023-04-04T05:40:24.946Z,100744.38
2023-04-04T05:43:04.379Z,100738.28
2023-04-04T05:45:40.527Z,100740.81
2023-04-04T05:48:08.304Z,100739.03
2023-04-04T05:50:46.081Z,100741.66
2023-04-04T05:53:13.486Z,100743.34
2023-04-04T05:55:42.600Z,100746.69
2023-04-04T05:58:10.868Z,100740.50
2023-04-04T06:00:47.803Z,100743.88
2023-04-04T06:03:14.973Z,100744.63
2023-04-04T06:05:44.388Z,100751.44
2023-04-04T06:08:12.277Z,100751.31
2023-04-04T06:10:39.474Z,100757.22
2023-04-04T06:13:06.604Z,100756.16
2023-04-04T06:15:34.307Z,100754.28
2023-04-04T06:18:01.251Z,100761.13
2023-04-04T06:20:29.451Z,100759.22
2023-04-04T06:22:56.475Z,100763.31
2023-04-04T06:25:23.632Z,100762.28
2023-04-04T06:27:51.438Z,100761.84
2023-04-04T06:30:18.620Z,100756.19
2023-04-04T06:32:49.775Z,100762.72
2023-04-04T06:35:21.283Z,100762.19
2023-04-04T06:37:58.078Z,100756.44
2023-04-04T06:40:26.862Z,100758.59
2023-04-04T06:42:57.990Z,100762.53
2023-04-04T06:45:29.485Z,100766.28
2023-04-04T06:47:56.676Z,100763.13
2023-04-04T06:50:23.729Z,100766.75
2023-04-04T06:52:50.965Z,100754.66
2023-04-04T06:55:18.554Z,100761.06
2023-04-04T06:57:45.679Z,100763.88
2023-04-04T07:00:13.708Z,100772.06
2023-04-04T07:02:40.829Z,100762.53
2023-04-04T07:05:08.684Z,100765.38
2023-04-04T07:07:35.612Z,100759.34
2023-04-04T07:10:03.036Z,100760.31
2023-04-04T07:12:31.584Z,100759.63
2023-04-04T07:14:58.557Z,100758.97
2023-04-04T07:17:25.681Z,100753.84
2023-04-04T07:19:52.729Z,100764.41
2023-04-04T07:22:19.682Z,100753.09
2023-04-04T07:24:48.147Z,100755.72
2023-04-04T07:27:15.861Z,100755.03
2023-04-04T07:29:42.977Z,100755.88
2023-04-04T07:32:10.080Z,100753.38
2023-04-04T07:34:37.379Z,100745.72
2023-04-04T07:37:04.352Z,100744.16
2023-04-04T07:39:31.910Z,100740.81
2023-04-04T07:41:58.890Z,100745.47
2023-04-04T07:44:25.865Z,100737.78
2023-04-04T07:47:06.437Z,100742.31
2023-04-04T07:49:36.034Z,100743.16
2023-04-04T07:52:03.169Z,100743.97
2023-04-04T07:54:30.100Z,100744.06
2023-04-04T07:56:57.113Z,100746.78
2023-04-04T07:59:24.220Z,100738.13
2023-04-04T08:01:51.319Z,100743.38
2023-04-04T08:04:18.385Z,100746.91
2023-04-04T08:06:45.585Z,100749.50
2023-04-04T08:09:12.638Z,100755.72
2023-04-04T08:11:39.545Z,100752.28
2023-04-04T08:14:06.490Z,100751.66
2023-04-04T08:16:33.809Z,100751.97
2023-04-04T08:19:00.870Z,100746.72
2023-04-04T08:21:28.137Z,100751.38
2023-04-04T08:23:55.612Z,100749.63
2023-04-04T08:26:22.791Z,100746.06
2023-04-04T08:28:50.113Z,100753.03
2023-04-04T08:31:17.425Z,100750.59
2023-04-04T08:33:47.752Z,100750.03
2023-04-04T08:36:16.327Z,100754.53
2023-04-04T08:38:43.410Z,100747.06
2023-04-04T08:41:12.040Z,100755.16
2023-04-04T08:43:41.483Z,100757.41
2023-04-04T08:46:11.634Z,100752.66
2023-04-04T08:48:41.989Z,100756.44
2023-04-04T08:51:14.007Z,100757.25
2023-04-04T08:53:41.687Z,100756.03
2023-04-04T08:56:08.827Z,100746.13
2023-04-04T08:58:38.861Z,100743.09
2023-04-04T09:01:07.158Z,100750.19
2023-04-04T09:03:36.724Z,100756.63
2023-04-04T09:06:05.060Z,100749.69
2023-04-04T09:08:32.281Z,100755.25
2023-04-04T09:11:03.569Z,100751.06
2023-04-04T09:13:30.549Z,100747.00
2023-04-04T09:15:58.806Z,100749.94
2023-04-04T09:18:25.757Z,100742.97
2023-04-04T09:20:52.895Z,100738.78
2023-04-04T09:23:21.295Z,100744.09
2023-04-04T09:28:23.047Z,100753.00
2023-04-04T09:30:51.698Z,100744.75
2023-04-04T09:33:21.915Z,100737.19
2023-04-04T09:35:58.496Z,100728.00
2023-04-04T09:38:31.212Z,100744.00
2023-04-04T09:40:58.483Z,100727.22
2023-04-04T09:43:26.105Z,100736.25
2023-04-04T09:45:55.320Z,100737.22
2023-04-04T09:48:27.766Z,100742.63
2023-04-04T09:50:58.015Z,100751.16
2023-04-04T09:53:25.433Z,100740.81
2023-04-04T09:55:57.512Z,100735.22
2023-04-04T09:58:27.719Z,100738.25
2023-04-04T10:01:01.119Z,100734.84
2023-04-04T10:03:30.134Z,100746.63
2023-04-04T10:06:00.278Z,100754.28
2023-04-04T10:08:29.329Z,100733.44
2023-04-04T10:11:09.636Z,100731.19
2023-04-04T10:13:44.522Z,100727.63
2023-04-04T10:16:12.125Z,100721.88
2023-04-04T10:18:39.781Z,100730.50
2023-04-04T10:23:40.303Z,100727.13
2023-04-04T10:26:07.696Z,100723.72
2023-04-04T10:28:35.203Z,100735.66
2023-04-04T10:31:24.755Z,100725.75
2023-04-04T10:34:23.921Z,100734.78
2023-04-04T10:37:03.450Z,100725.84
2023-04-04T10:39:36.384Z,100728.72
2023-04-04T10:42:06.807Z,100724.78
2023-04-04T10:44:41.499Z,100726.28
2023-04-04T10:47:15.485Z,100710.03
2023-04-04T10:49:47.273Z,100712.69
2023-04-04T10:52:19.784Z,100722.03
2023-04-04T10:54:49.797Z,100720.06
2023-04-04T10:57:17.461Z,100718.44
2023-04-04T11:00:10.622Z,100715.22
2023-04-04T11:02:59.398Z,100718.34
2023-04-04T11:05:32.714Z,100711.53
2023-04-04T11:08:08.561Z,100705.16
2023-04-04T11:10:45.851Z,100704.44
2023-04-04T11:13:24.769Z,100695.81
2023-04-04T11:16:16.778Z,100693.00
2023-04-04T11:18:45.131Z,100697.97
2023-04-04T11:21:27.937Z,100686.06
2023-04-04T11:23:54.752Z,100681.25
2023-04-04T11:26:27.671Z,100676.09
2023-04-04T11:28:59.786Z,100685.53
2023-04-04T11:31:38.848Z,100668.78
2023-04-04T11:34:30.147Z,100679.06
2023-04-04T11:36:57.912Z,100674.78
2023-04-04T11:39:30.767Z,100676.88
2023-04-04T11:42:07.683Z,100674.78
2023-04-04T11:44:49.220Z,100674.03
2023-04-04T11:47:20.021Z,100659.56
2023-04-04T11:49:47.813Z,100665.94
2023-04-04T11:52:20.107Z,100655.09
2023-04-04T11:54:50.064Z,100667.81
2023-04-04T11:57:21.840Z,100659.44
2023-04-04T11:59:51.393Z,100653.03
2023-04-04T12:02:32.171Z,100655.72
2023-04-04T12:05:00.147Z,100655.59
2023-04-04T12:07:29.601Z,100649.38
2023-04-04T12:09:57.650Z,100647.22
2023-04-04T12:12:26.497Z,100649.88
2023-04-04T12:14:58.082Z,100650.84
2023-04-04T12:17:30.511Z,100654.22
2023-04-04T12:19:57.737Z,100643.34
2023-04-04T12:22:24.933Z,100646.09
2023-04-04T12:24:51.970Z,100635.59
2023-04-04T12:27:19.762Z,100636.47
2023-04-04T12:29:47.575Z,100625.50
2023-04-04T12:32:15.111Z,100630.09
2023-04-04T12:34:47.248Z,100628.56
2023-04-04T12:37:18.996Z,100636.72
2023-04-04T12:39:50.836Z,100629.78
2023-04-04T12:42:25.823Z,100624.50
2023-04-04T12:44:54.244Z,100623.72
2023-04-04T12:47:24.197Z,100614.94
2023-04-04T12:49:56.530Z,100618.47
2023-04-04T12:52:32.379Z,100607.13
2023-04-04T12:55:08.375Z,100615.28
2023-04-04T12:57:39.303Z,100611.44
2023-04-04T13:00:08.921Z,100602.84
2023-04-04T13:02:38.493Z,100608.66
2023-04-04T13:05:07.119Z,100596.16
2023-04-04T13:10:31.129Z,100588.34
2023-04-04T13:13:01.290Z,100589.59
2023-04-04T13:15:51.439Z,100585.84
2023-04-04T13:18:25.433Z,100583.50
2023-04-04T13:20:54.835Z,100595.94
2023-04-04T13:23:22.776Z,100584.97
2023-04-04T13:25:49.902Z,100579.25
2023-04-04T13:28:17.426Z,100569.09
2023-04-04T13:30:48.922Z,100574.75
2023-04-04T13:33:17.838Z,100562.97
2023-04-04T13:35:46.700Z,100572.00
2023-04-04T13:38:13.880Z,100554.94
2023-04-04T13:40:41.111Z,100569.56
2023-04-04T13:43:11.180Z,100564.53
2023-04-04T13:45:38.491Z,100564.91
2023-04-04T13:48:05.689Z,100560.16
2023-04-04T13:50:36.577Z,100547.41
2023-04-04T14:04:47.708Z,100544.16
2023-04-04T14:07:15.013Z,100538.50
2023-04-04T14:09:42.173Z,100542.88
2023-04-04T14:12:09.118Z,100554.53
2023-04-04T14:14:37.822Z,100542.00
2023-04-04T14:17:05.061Z,100537.78
2023-04-04T14:19:32.007Z,100526.53
2023-04-04T14:21:58.968Z,100534.22
2023-04-04T14:24:26.015Z,100535.03
2023-04-04T14:26:53.043Z,100525.09
2023-04-04T14:29:19.998Z,100530.31
2023-04-04T14:31:47.001Z,100535.09
2023-04-04T14:34:14.118Z,100531.88
2023-04-04T14:36:42.146Z,100531.03
2023-04-04T14:39:09.315Z,100535.50
2023-04-04T14:41:36.395Z,100528.84
2023-04-04T14:44:03.382Z,100526.38
2023-04-04T14:46:30.828Z,100515.69
2023-04-04T14:48:58.179Z,100529.03
2023-04-04T14:54:18.406Z,100523.44
2023-04-04T14:56:45.609Z,100520.09
2023-04-04T14:59:12.776Z,100516.81
2023-04-04T15:01:40.101Z,100511.06
2023-04-04T15:04:07.257Z,100512.13
2023-04-04T15:06:37.827Z,100504.63
2023-04-04T15:09:06.109Z,100506.16
2023-04-04T15:11:33.409Z,100506.41
2023-04-04T15:14:00.545Z,100503.25
2023-04-04T15:16:32.682Z,100505.56
2023-04-04T15:19:00.627Z,100509.31
2023-04-04T15:21:28.724Z,100499.16
2023-04-04T15:23:56.141Z,100503.16
2023-04-04T15:26:23.262Z,100497.72
2023-04-04T15:28:50.532Z,100499.84
2023-04-04T15:31:18.029Z,100501.13
2023-04-04T15:33:44.998Z,100491.22
2023-04-04T15:36:12.031Z,100489.50
2023-04-04T15:38:39.945Z,100491.69
2023-04-04T15:41:09.327Z,100487.19
2023-04-04T15:43:37.062Z,100475.78
2023-04-04T15:46:04.622Z,100488.59
2023-04-04T15:48:32.041Z,100485.53
2023-04-04T15:51:02.885Z,100486.41
2023-04-04T15:53:30.819Z,100487.19
2023-04-04T15:55:58.752Z,100487.59
2023-04-04T15:58:26.570Z,100484.16
2023-04-04T16:00:53.831Z,100480.03
2023-04-04T16:03:21.410Z,100480.84
2023-04-04T16:05:48.480Z,100483.03
2023-04-04T16:08:15.527Z,100484.81
2023-04-04T16:10:44.070Z,100487.41
2023-04-04T16:13:13.294Z,100483.94
2023-04-04T16:15:40.371Z,100481.13
2023-04-04T16:18:07.785Z,100483.09
2023-04-04T16:20:35.564Z,100479.88
2023-04-04T16:23:02.562Z,100481.13
2023-04-04T16:25:29.558Z,100476.91
2023-04-04T16:27:56.595Z,100479.31
2023-04-04T16:30:23.543Z,100476.19
2023-04-04T16:32:50.901Z,100482.00
2023-04-04T16:35:18.002Z,100473.91
2023-04-04T16:37:45.201Z,100473.06
2023-04-04T16:40:14.040Z,100471.28
2023-04-04T16:42:42.216Z,100471.16
2023-04-04T16:45:10.238Z,100454.16
2023-04-04T16:47:37.391Z,100458.13
2023-04-04T16:50:06.963Z,100465.97
2023-04-04T16:52:33.973Z,100462.69
2023-04-04T16:55:01.107Z,100460.72
2023-04-04T16:57:28.090Z,100461.09
2023-04-04T16:59:55.106Z,100460.94
2023-04-04T17:02:22.074Z,100468.13
2023-04-04T17:04:49.140Z,100461.31
2023-04-04T17:07:16.235Z,100467.16
2023-04-04T17:09:43.225Z,100466.63
2023-04-04T17:12:10.242Z,100466.66
2023-04-04T17:14:37.526Z,100464.66
2023-04-04T17:17:05.448Z,100467.50
2023-04-04T17:19:34.764Z,100458.16
2023-04-04T17:22:02.143Z,100464.84
2023-04-04T17:24:29.148Z,100468.53
2023-04-04T17:26:58.120Z,100475.00
2023-04-04T17:29:26.905Z,100475.66
2023-04-04T17:31:58.283Z,100475.84
2023-04-04T17:34:25.994Z,100477.31
2023-04-04T17:36:53.893Z,100475.63
2023-04-04T17:39:21.536Z,100475.97
2023-04-04T17:41:49.213Z,100476.28
2023-04-04T17:44:17.691Z,100475.22
2023-04-04T17:46:47.741Z,100471.72
2023-04-04T17:49:19.707Z,100473.22
2023-04-04T17:51:48.659Z,100472.53
2023-04-04T17:54:15.713Z,100468.84
2023-04-04T17:56:46.699Z,100463.47
2023-04-04T17:59:15.752Z,100463.09
2023-04-04T18:01:43.499Z,100467.38
2023-04-04T18:04:10.515Z,100468.03
2023-04-04T18:06:40.151Z,100459.53
2023-04-04T18:09:09.056Z,100459.31
2023-04-04T18:11:36.849Z,100454.72
2023-04-04T18:14:04.425Z,100457.81
2023-04-04T18:16:38.781Z,100458.28
2023-04-04T18:19:06.448Z,100461.88
2023-04-04T18:21:33.400Z,100457.88
2023-04-04T18:24:00.463Z,100464.91
2023-04-04T18:26:27.851Z,100466.22
2023-04-04T18:28:54.823Z,100471.00
2023-04-04T18:31:21.859Z,100470.66
2023-04-04T18:33:49.742Z,100469.59
2023-04-04T18:36:16.973Z,100479.66
2023-04-04T18:38:45.504Z,100474.47
2023-04-04T18:41:12.510Z,100476.88
2023-04-04T18:43:39.966Z,100481.50
2023-04-04T18:46:07.672Z,100478.44
2023-04-04T18:48:34.774Z,100477.09
2023-04-04T18:51:02.044Z,100477.69
2023-04-04T18:53:29.504Z,100480.13
2023-04-04T18:55:57.988Z,100478.91
2023-04-04T18:58:26.046Z,100476.16
2023-04-04T19:00:55.526Z,100481.06
2023-04-04T19:03:23.127Z,100477.34
2023-04-04T19:05:51.071Z,100475.84
2023-04-04T19:08:19.238Z,100481.56
2023-04-04T19:10:50.827Z,100478.50
2023-04-04T19:13:18.451Z,100480.22
2023-04-04T19:15:45.702Z,100489.31
2023-04-04T19:18:12.817Z,100490.56
2023-04-04T19:20:42.098Z,100490.16
2023-04-04T19:23:10.215Z,100495.06
2023-04-04T19:25:37.261Z,100484.78
2023-04-04T19:28:04.581Z,100493.97
2023-04-04T19:30:49.306Z,100496.94
2023-04-04T19:33:25.650Z,100500.72
2023-04-04T19:35:58.855Z,100495.16
2023-04-04T19:38:32.476Z,100497.25
2023-04-04T19:41:02.270Z,100502.97
2023-04-04T19:43:30.730Z,100503.13
2023-04-04T19:46:04.723Z,100500.75
2023-04-04T19:48:38.428Z,100498.69
2023-04-04T19:51:16.536Z,100495.63
2023-04-04T19:53:45.826Z,100499.66
2023-04-04T19:56:15.360Z,100501.63
2023-04-04T19:58:43.227Z,100504.44
2023-04-04T20:01:15.466Z,100503.88
2023-04-04T20:03:44.363Z,100505.00
2023-04-04T20:06:23.468Z,100501.78
2023-04-04T20:08:53.978Z,100506.66
2023-04-04T20:11:39.345Z,100506.94
2023-04-04T20:14:09.064Z,100501.91
2023-04-04T20:16:36.839Z,100506.69
2023-04-04T20:19:06.693Z,100495.81
2023-04-04T20:21:35.593Z,100500.44
2023-04-04T20:24:07.925Z,100498.72
2023-04-04T20:26:59.729Z,100500.97
2023-04-04T20:29:29.799Z,100496.94
2023-04-04T20:32:04.748Z,100500.84
2023-04-04T20:34:49.714Z,100502.78
2023-04-04T20:37:26.468Z,100503.91
2023-04-04T20:40:37.818Z,100499.16
2023-04-04T20:43:07.348Z,100503.03
2023-04-04T20:45:44.806Z,100506.94
2023-04-04T20:48:38.100Z,100501.94
2023-04-04T20:51:31.769Z,100510.16
2023-04-04T20:54:03.706Z,100510.53
2023-04-04T20:56:39.326Z,100509.84
2023-04-04T20:59:36.592Z,100502.31
2023-04-04T21:02:16.880Z,100514.72
2023-04-04T21:04:45.783Z,100509.72
2023-04-04T21:07:37.330Z,100508.31
2023-04-04T21:10:25.427Z,100513.72
2023-04-04T21:13:01.721Z,100510.38
2023-04-04T21:15:33.498Z,100516.63
2023-04-04T21:18:07.272Z,100513.56
2023-04-04T21:20:46.467Z,100512.03
2023-04-04T21:23:25.426Z,100513.97
2023-04-04T21:26:02.692Z,100507.13
2023-04-04T21:28:32.632Z,100522.44
2023-04-04T21:31:00.736Z,100525.31
2023-04-04T21:33:27.860Z,100521.16
2023-04-04T21:35:56.250Z,100519.63
2023-04-04T21:38:31.353Z,100521.56
2023-04-04T21:41:12.038Z,100518.06
2023-04-04T21:43:39.059Z,100521.84
2023-04-04T21:46:05.999Z,100530.97
2023-04-04T21:48:32.957Z,100524.31
2023-04-04T21:50:59.964Z,100520.00
2023-04-04T21:53:27.041Z,100516.63
2023-04-04T21:55:54.068Z,100522.88
2023-04-04T21:58:21.112Z,100524.84
2023-04-04T22:00:48.575Z,100517.88
2023-04-04T22:03:16.672Z,100519.81
2023-04-04T22:05:44.268Z,100517.31
2023-04-04T22:08:11.789Z,100516.75
2023-04-04T22:10:46.177Z,100515.06
2023-04-04T22:13:22.278Z,100508.38
2023-04-04T22:15:52.524Z,100517.28
2023-04-04T22:18:30.411Z,100506.72
2023-04-04T22:21:02.824Z,100513.91
2023-04-04T22:23:35.423Z,100513.06
2023-04-04T22:26:11.033Z,100503.34
2023-04-04T22:28:38.814Z,100512.25
2023-04-04T22:31:06.313Z,100508.91
2023-04-04T22:33:34.579Z,100519.47
2023-04-04T22:36:02.483Z,100514.19
2023-04-04T22:38:30.036Z,100510.84
2023-04-04T22:40:58.358Z,100501.22
2023-04-04T22:43:25.930Z,100509.28
2023-04-04T22:45:53.502Z,100503.31
2023-04-04T22:48:24.143Z,100498.88
2023-04-04T22:50:55.636Z,100490.13
2023-04-04T22:53:26.004Z,100490.25
2023-04-04T22:55:58.122Z,100495.78
2023-04-04T22:58:28.227Z,100490.63
2023-04-04T23:00:55.249Z,100492.44
2023-04-04T23:03:22.196Z,100492.69
2023-04-04T23:05:49.201Z,100483.00
2023-04-04T23:08:16.423Z,100482.41
2023-04-04T23:10:43.543Z,100484.34
2023-04-04T23:13:10.523Z,100471.25
2023-04-04T23:15:37.894Z,100472.38
2023-04-04T23:18:05.354Z,100481.25
2023-04-04T23:20:32.849Z,100476.97
2023-04-04T23:22:59.944Z,100478.88
2023-04-04T23:25:27.080Z,100486.78
2023-04-04T23:27:54.305Z,100476.38
2023-04-04T23:30:23.250Z,100483.31
2023-04-04T23:32:50.497Z,100476.38
2023-04-04T23:35:17.654Z,100466.78
2023-04-04T23:37:44.722Z,100463.44
2023-04-04T23:40:12.130Z,100462.72
2023-04-04T23:42:39.154Z,100461.91
2023-04-04T23:45:07.240Z,100473.41
2023-04-04T23:47:34.479Z,100454.25
2023-04-04T23:50:01.730Z,100449.13
2023-04-04T23:52:29.345Z,100450.19
2023-04-04T23:54:56.306Z,100454.91
2023-04-04T23:57:23.234Z,100447.00
2023-04-04T23:59:50.191Z,100444.50
